sensor_id;sensor_type;location;lat;lon;timestamp;P1;durP1;ratioP1;P2;durP2;ratioP2
81811;SDS011;71243;51.848;5.768;2023-10-09T00:01:57;22.00;;;11.10;;
81811;SDS011;71243;51.848;5.768;2023-10-09T00:04:22;21.93;;;9.83;;
81811;SDS011;71243;51.848;5.768;2023-10-09T00:06:48;23.63;;;9.77;;
81811;SDS011;71243;51.848;5.768;2023-10-09T00:09:13;19.27;;;9.63;;
81811;SDS011;71243;51.848;5.768;2023-10-09T00:11:38;21.43;;;9.80;;
81811;SDS011;71243;51.848;5.768;2023-10-09T00:14:03;25.23;;;10.97;;
81811;SDS011;71243;51.848;5.768;2023-10-09T00:16:28;22.73;;;10.15;;
81811;SDS011;71243;51.848;5.768;2023-10-09T00:18:54;22.00;;;9.93;;
81811;SDS011;71243;51.848;5.768;2023-10-09T00:21:19;22.40;;;10.63;;
81811;SDS011;71243;51.848;5.768;2023-10-09T00:23:44;28.45;;;11.63;;
81811;SDS011;71243;51.848;5.768;2023-10-09T00:26:10;20.27;;;10.67;;
81811;SDS011;71243;51.848;5.768;2023-10-09T00:28:35;24.33;;;10.77;;
81811;SDS011;71243;51.848;5.768;2023-10-09T00:31:03;27.58;;;10.98;;
81811;SDS011;71243;51.848;5.768;2023-10-09T00:33:29;22.52;;;10.30;;
81811;SDS011;71243;51.848;5.768;2023-10-09T00:35:54;23.33;;;11.10;;
81811;SDS011;71243;51.848;5.768;2023-10-09T00:38:19;26.10;;;11.83;;
81811;SDS011;71243;51.848;5.768;2023-10-09T00:40:45;25.73;;;11.77;;
81811;SDS011;71243;51.848;5.768;2023-10-09T00:43:10;23.27;;;10.68;;
81811;SDS011;71243;51.848;5.768;2023-10-09T00:45:36;28.05;;;11.65;;
81811;SDS011;71243;51.848;5.768;2023-10-09T00:48:01;29.33;;;11.70;;
81811;SDS011;71243;51.848;5.768;2023-10-09T00:50:27;21.27;;;11.57;;
81811;SDS011;71243;51.848;5.768;2023-10-09T00:52:53;23.33;;;11.35;;
81811;SDS011;71243;51.848;5.768;2023-10-09T00:55:22;25.77;;;12.35;;
81811;SDS011;71243;51.848;5.768;2023-10-09T00:57:50;26.88;;;11.27;;
81811;SDS011;71243;51.848;5.768;2023-10-09T01:00:16;24.25;;;11.27;;
81811;SDS011;71243;51.848;5.768;2023-10-09T01:02:42;26.95;;;11.50;;
81811;SDS011;71243;51.848;5.768;2023-10-09T01:05:08;24.30;;;11.52;;
81811;SDS011;71243;51.848;5.768;2023-10-09T01:07:34;25.05;;;11.05;;
81811;SDS011;71243;51.848;5.768;2023-10-09T01:09:59;24.10;;;10.85;;
81811;SDS011;71243;51.848;5.768;2023-10-09T01:12:24;25.47;;;12.40;;
81811;SDS011;71243;51.848;5.768;2023-10-09T01:14:50;27.33;;;12.03;;
81811;SDS011;71243;51.848;5.768;2023-10-09T01:17:15;23.67;;;10.75;;
81811;SDS011;71243;51.848;5.768;2023-10-09T01:19:40;24.75;;;10.82;;
81811;SDS011;71243;51.848;5.768;2023-10-09T01:22:05;25.48;;;12.73;;
81811;SDS011;71243;51.848;5.768;2023-10-09T01:24:31;26.90;;;12.45;;
81811;SDS011;71243;51.848;5.768;2023-10-09T01:26:56;25.08;;;11.25;;
81811;SDS011;71243;51.848;5.768;2023-10-09T01:29:22;27.53;;;12.50;;
81811;SDS011;71243;51.848;5.768;2023-10-09T01:31:49;25.83;;;11.00;;
81811;SDS011;71243;51.848;5.768;2023-10-09T01:34:19;25.35;;;12.32;;
81811;SDS011;71243;51.848;5.768;2023-10-09T01:36:45;24.58;;;12.02;;
81811;SDS011;71243;51.848;5.768;2023-10-09T01:39:10;28.10;;;13.57;;
81811;SDS011;71243;51.848;5.768;2023-10-09T01:41:36;26.10;;;12.40;;
81811;SDS011;71243;51.848;5.768;2023-10-09T01:44:01;24.05;;;12.70;;
81811;SDS011;71243;51.848;5.768;2023-10-09T01:46:27;26.70;;;12.77;;
81811;SDS011;71243;51.848;5.768;2023-10-09T01:48:52;26.97;;;12.13;;
81811;SDS011;71243;51.848;5.768;2023-10-09T01:51:17;23.47;;;12.20;;
81811;SDS011;71243;51.848;5.768;2023-10-09T01:53:43;25.73;;;13.03;;
81811;SDS011;71243;51.848;5.768;2023-10-09T01:56:10;25.20;;;12.60;;
81811;SDS011;71243;51.848;5.768;2023-10-09T01:58:36;25.85;;;12.85;;
81811;SDS011;71243;51.848;5.768;2023-10-09T02:01:01;27.20;;;12.87;;
81811;SDS011;71243;51.848;5.768;2023-10-09T02:03:26;25.30;;;13.18;;
81811;SDS011;71243;51.848;5.768;2023-10-09T02:05:52;26.53;;;13.33;;
81811;SDS011;71243;51.848;5.768;2023-10-09T02:08:18;24.58;;;12.07;;
81811;SDS011;71243;51.848;5.768;2023-10-09T02:10:43;26.33;;;13.20;;
81811;SDS011;71243;51.848;5.768;2023-10-09T02:13:08;25.80;;;12.80;;
81811;SDS011;71243;51.848;5.768;2023-10-09T02:15:34;26.87;;;13.43;;
81811;SDS011;71243;51.848;5.768;2023-10-09T02:18:01;26.17;;;13.07;;
81811;SDS011;71243;51.848;5.768;2023-10-09T02:20:26;26.23;;;11.48;;
81811;SDS011;71243;51.848;5.768;2023-10-09T02:22:51;22.73;;;11.57;;
81811;SDS011;71243;51.848;5.768;2023-10-09T02:25:16;20.93;;;11.93;;
81811;SDS011;71243;51.848;5.768;2023-10-09T02:27:42;21.47;;;12.03;;
81811;SDS011;71243;51.848;5.768;2023-10-09T02:30:07;23.67;;;12.00;;
81811;SDS011;71243;51.848;5.768;2023-10-09T02:32:33;25.20;;;11.98;;
81811;SDS011;71243;51.848;5.768;2023-10-09T02:34:58;21.90;;;12.30;;
81811;SDS011;71243;51.848;5.768;2023-10-09T02:37:26;23.20;;;11.27;;
81811;SDS011;71243;51.848;5.768;2023-10-09T02:39:51;21.08;;;11.40;;
81811;SDS011;71243;51.848;5.768;2023-10-09T02:42:17;23.63;;;12.47;;
81811;SDS011;71243;51.848;5.768;2023-10-09T02:44:42;22.83;;;10.37;;
81811;SDS011;71243;51.848;5.768;2023-10-09T02:47:07;19.77;;;9.77;;
81811;SDS011;71243;51.848;5.768;2023-10-09T02:49:32;23.60;;;11.43;;
81811;SDS011;71243;51.848;5.768;2023-10-09T02:51:58;20.20;;;10.60;;
81811;SDS011;71243;51.848;5.768;2023-10-09T02:54:23;20.07;;;11.80;;
81811;SDS011;71243;51.848;5.768;2023-10-09T02:56:49;19.60;;;11.27;;
81811;SDS011;71243;51.848;5.768;2023-10-09T02:59:15;21.92;;;10.48;;
81811;SDS011;71243;51.848;5.768;2023-10-09T03:01:41;21.60;;;10.73;;
81811;SDS011;71243;51.848;5.768;2023-10-09T03:04:06;24.73;;;12.20;;
81811;SDS011;71243;51.848;5.768;2023-10-09T03:06:32;21.98;;;11.00;;
81811;SDS011;71243;51.848;5.768;2023-10-09T03:08:58;20.35;;;11.32;;
81811;SDS011;71243;51.848;5.768;2023-10-09T03:11:24;17.85;;;9.77;;
81811;SDS011;71243;51.848;5.768;2023-10-09T03:13:49;19.20;;;9.98;;
81811;SDS011;71243;51.848;5.768;2023-10-09T03:16:14;20.90;;;10.00;;
81811;SDS011;71243;51.848;5.768;2023-10-09T03:18:40;21.15;;;10.98;;
81811;SDS011;71243;51.848;5.768;2023-10-09T03:21:05;22.42;;;9.65;;
81811;SDS011;71243;51.848;5.768;2023-10-09T03:23:30;17.17;;;9.80;;
81811;SDS011;71243;51.848;5.768;2023-10-09T03:25:56;20.67;;;10.67;;
81811;SDS011;71243;51.848;5.768;2023-10-09T03:28:21;16.75;;;8.55;;
81811;SDS011;71243;51.848;5.768;2023-10-09T03:30:46;18.17;;;9.82;;
81811;SDS011;71243;51.848;5.768;2023-10-09T03:33:11;20.23;;;10.60;;
81811;SDS011;71243;51.848;5.768;2023-10-09T03:35:37;18.63;;;10.27;;
81811;SDS011;71243;51.848;5.768;2023-10-09T03:38:02;18.50;;;9.55;;
81811;SDS011;71243;51.848;5.768;2023-10-09T03:40:27;20.35;;;8.88;;
81811;SDS011;71243;51.848;5.768;2023-10-09T03:42:53;15.85;;;8.75;;
81811;SDS011;71243;51.848;5.768;2023-10-09T03:45:19;17.30;;;9.75;;
81811;SDS011;71243;51.848;5.768;2023-10-09T03:47:45;18.83;;;9.90;;
81811;SDS011;71243;51.848;5.768;2023-10-09T03:50:10;19.90;;;9.73;;
81811;SDS011;71243;51.848;5.768;2023-10-09T03:52:35;18.67;;;9.38;;
81811;SDS011;71243;51.848;5.768;2023-10-09T03:55:00;17.20;;;8.87;;
81811;SDS011;71243;51.848;5.768;2023-10-09T03:57:26;16.20;;;8.10;;
81811;SDS011;71243;51.848;5.768;2023-10-09T03:59:51;15.20;;;8.53;;
81811;SDS011;71243;51.848;5.768;2023-10-09T04:02:16;17.00;;;9.27;;
81811;SDS011;71243;51.848;5.768;2023-10-09T04:04:42;16.33;;;7.63;;
81811;SDS011;71243;51.848;5.768;2023-10-09T04:07:07;18.50;;;9.25;;
81811;SDS011;71243;51.848;5.768;2023-10-09T04:09:33;20.90;;;8.93;;
81811;SDS011;71243;51.848;5.768;2023-10-09T04:11:58;17.48;;;9.70;;
81811;SDS011;71243;51.848;5.768;2023-10-09T04:14:23;17.40;;;8.17;;
81811;SDS011;71243;51.848;5.768;2023-10-09T04:16:48;17.73;;;8.13;;
81811;SDS011;71243;51.848;5.768;2023-10-09T04:19:14;16.27;;;8.17;;
81811;SDS011;71243;51.848;5.768;2023-10-09T04:21:39;17.70;;;8.23;;
81811;SDS011;71243;51.848;5.768;2023-10-09T04:24:05;16.57;;;7.80;;
81811;SDS011;71243;51.848;5.768;2023-10-09T04:26:33;15.27;;;7.95;;
81811;SDS011;71243;51.848;5.768;2023-10-09T04:28:58;17.00;;;8.40;;
81811;SDS011;71243;51.848;5.768;2023-10-09T04:31:23;20.10;;;8.30;;
81811;SDS011;71243;51.848;5.768;2023-10-09T04:33:49;17.60;;;8.03;;
81811;SDS011;71243;51.848;5.768;2023-10-09T04:36:14;15.10;;;8.03;;
81811;SDS011;71243;51.848;5.768;2023-10-09T04:38:39;17.67;;;9.23;;
81811;SDS011;71243;51.848;5.768;2023-10-09T04:41:05;17.23;;;8.60;;
81811;SDS011;71243;51.848;5.768;2023-10-09T04:43:31;16.02;;;7.80;;
81811;SDS011;71243;51.848;5.768;2023-10-09T04:45:57;16.23;;;8.90;;
81811;SDS011;71243;51.848;5.768;2023-10-09T04:48:23;14.50;;;8.00;;
81811;SDS011;71243;51.848;5.768;2023-10-09T04:50:49;18.37;;;8.17;;
81811;SDS011;71243;51.848;5.768;2023-10-09T04:53:15;16.52;;;7.30;;
81811;SDS011;71243;51.848;5.768;2023-10-09T04:55:40;15.93;;;7.60;;
81811;SDS011;71243;51.848;5.768;2023-10-09T04:58:06;16.08;;;7.35;;
81811;SDS011;71243;51.848;5.768;2023-10-09T05:00:31;15.07;;;8.27;;
81811;SDS011;71243;51.848;5.768;2023-10-09T05:02:57;19.13;;;8.13;;
81811;SDS011;71243;51.848;5.768;2023-10-09T05:05:23;16.85;;;8.70;;
81811;SDS011;71243;51.848;5.768;2023-10-09T05:07:50;17.73;;;7.57;;
81811;SDS011;71243;51.848;5.768;2023-10-09T05:10:15;16.90;;;8.07;;
81811;SDS011;71243;51.848;5.768;2023-10-09T05:12:40;16.80;;;8.57;;
81811;SDS011;71243;51.848;5.768;2023-10-09T05:15:06;19.45;;;9.27;;
81811;SDS011;71243;51.848;5.768;2023-10-09T05:17:31;15.15;;;8.30;;
81811;SDS011;71243;51.848;5.768;2023-10-09T05:19:56;16.50;;;7.80;;
81811;SDS011;71243;51.848;5.768;2023-10-09T05:22:22;17.33;;;8.33;;
81811;SDS011;71243;51.848;5.768;2023-10-09T05:24:47;15.83;;;8.10;;
81811;SDS011;71243;51.848;5.768;2023-10-09T05:27:12;15.50;;;8.20;;
81811;SDS011;71243;51.848;5.768;2023-10-09T05:29:37;19.90;;;9.10;;
81811;SDS011;71243;51.848;5.768;2023-10-09T05:32:04;16.70;;;8.63;;
81811;SDS011;71243;51.848;5.768;2023-10-09T05:34:33;14.82;;;8.10;;
81811;SDS011;71243;51.848;5.768;2023-10-09T05:37:00;18.90;;;8.70;;
81811;SDS011;71243;51.848;5.768;2023-10-09T05:39:26;19.63;;;9.55;;
81811;SDS011;71243;51.848;5.768;2023-10-09T05:41:52;18.00;;;8.90;;
81811;SDS011;71243;51.848;5.768;2023-10-09T05:44:17;17.83;;;8.70;;
81811;SDS011;71243;51.848;5.768;2023-10-09T05:46:43;15.88;;;8.07;;
81811;SDS011;71243;51.848;5.768;2023-10-09T05:49:08;17.83;;;8.30;;
81811;SDS011;71243;51.848;5.768;2023-10-09T05:51:33;17.43;;;7.90;;
81811;SDS011;71243;51.848;5.768;2023-10-09T05:53:59;16.57;;;7.73;;
81811;SDS011;71243;51.848;5.768;2023-10-09T05:56:24;18.50;;;8.43;;
81811;SDS011;71243;51.848;5.768;2023-10-09T05:58:49;19.37;;;8.77;;
81811;SDS011;71243;51.848;5.768;2023-10-09T06:01:14;19.00;;;10.00;;
81811;SDS011;71243;51.848;5.768;2023-10-09T06:03:39;19.57;;;9.80;;
81811;SDS011;71243;51.848;5.768;2023-10-09T06:06:05;17.70;;;7.93;;
81811;SDS011;71243;51.848;5.768;2023-10-09T06:08:30;19.63;;;9.13;;
81811;SDS011;71243;51.848;5.768;2023-10-09T06:10:56;20.35;;;9.85;;
81811;SDS011;71243;51.848;5.768;2023-10-09T06:13:22;18.02;;;9.73;;
81811;SDS011;71243;51.848;5.768;2023-10-09T06:15:48;19.57;;;9.20;;
81811;SDS011;71243;51.848;5.768;2023-10-09T06:18:13;18.45;;;9.55;;
81811;SDS011;71243;51.848;5.768;2023-10-09T06:20:38;19.93;;;10.07;;
81811;SDS011;71243;51.848;5.768;2023-10-09T06:23:03;19.43;;;8.63;;
81811;SDS011;71243;51.848;5.768;2023-10-09T06:25:28;18.80;;;8.37;;
81811;SDS011;71243;51.848;5.768;2023-10-09T06:27:54;15.47;;;8.00;;
81811;SDS011;71243;51.848;5.768;2023-10-09T06:30:19;16.10;;;8.50;;
81811;SDS011;71243;51.848;5.768;2023-10-09T06:32:44;20.93;;;9.80;;
81811;SDS011;71243;51.848;5.768;2023-10-09T06:35:09;19.55;;;9.07;;
81811;SDS011;71243;51.848;5.768;2023-10-09T06:37:35;17.93;;;8.60;;
81811;SDS011;71243;51.848;5.768;2023-10-09T06:40:00;17.67;;;9.10;;
81811;SDS011;71243;51.848;5.768;2023-10-09T06:42:26;19.25;;;9.07;;
81811;SDS011;71243;51.848;5.768;2023-10-09T06:44:52;15.63;;;8.82;;
81811;SDS011;71243;51.848;5.768;2023-10-09T06:47:17;19.27;;;8.33;;
81811;SDS011;71243;51.848;5.768;2023-10-09T06:49:42;17.47;;;8.90;;
81811;SDS011;71243;51.848;5.768;2023-10-09T06:52:07;16.53;;;8.77;;
81811;SDS011;71243;51.848;5.768;2023-10-09T06:54:32;15.93;;;8.13;;
81811;SDS011;71243;51.848;5.768;2023-10-09T06:56:58;16.30;;;6.93;;
81811;SDS011;71243;51.848;5.768;2023-10-09T06:59:23;26.63;;;11.13;;
81811;SDS011;71243;51.848;5.768;2023-10-09T07:01:48;21.03;;;9.57;;
81811;SDS011;71243;51.848;5.768;2023-10-09T07:04:14;16.75;;;8.75;;
81811;SDS011;71243;51.848;5.768;2023-10-09T07:06:39;15.27;;;7.85;;
81811;SDS011;71243;51.848;5.768;2023-10-09T07:09:04;17.87;;;8.47;;
81811;SDS011;71243;51.848;5.768;2023-10-09T07:11:33;19.10;;;8.70;;
81811;SDS011;71243;51.848;5.768;2023-10-09T07:14:01;17.00;;;8.63;;
81811;SDS011;71243;51.848;5.768;2023-10-09T07:16:26;22.13;;;8.53;;
81811;SDS011;71243;51.848;5.768;2023-10-09T07:18:52;16.33;;;8.03;;
81811;SDS011;71243;51.848;5.768;2023-10-09T07:21:17;16.70;;;9.30;;
81811;SDS011;71243;51.848;5.768;2023-10-09T07:23:42;20.73;;;9.30;;
81811;SDS011;71243;51.848;5.768;2023-10-09T07:26:07;15.93;;;8.43;;
81811;SDS011;71243;51.848;5.768;2023-10-09T07:28:33;19.23;;;8.37;;
81811;SDS011;71243;51.848;5.768;2023-10-09T07:30:58;21.03;;;8.73;;
81811;SDS011;71243;51.848;5.768;2023-10-09T07:33:23;19.17;;;9.33;;
81811;SDS011;71243;51.848;5.768;2023-10-09T07:35:48;19.17;;;9.80;;
81811;SDS011;71243;51.848;5.768;2023-10-09T07:38:16;16.95;;;9.15;;
81811;SDS011;71243;51.848;5.768;2023-10-09T07:40:43;20.17;;;10.10;;
81811;SDS011;71243;51.848;5.768;2023-10-09T07:43:09;15.87;;;8.23;;
81811;SDS011;71243;51.848;5.768;2023-10-09T07:45:35;18.63;;;9.03;;
81811;SDS011;71243;51.848;5.768;2023-10-09T07:48:00;20.42;;;9.18;;
81811;SDS011;71243;51.848;5.768;2023-10-09T07:50:26;16.60;;;8.87;;
81811;SDS011;71243;51.848;5.768;2023-10-09T07:52:52;21.27;;;8.57;;
81811;SDS011;71243;51.848;5.768;2023-10-09T07:55:17;22.83;;;9.10;;
81811;SDS011;71243;51.848;5.768;2023-10-09T07:57:42;20.23;;;9.35;;
81811;SDS011;71243;51.848;5.768;2023-10-09T08:00:08;17.40;;;9.13;;
81811;SDS011;71243;51.848;5.768;2023-10-09T08:02:33;18.98;;;8.77;;
81811;SDS011;71243;51.848;5.768;2023-10-09T08:04:59;18.87;;;9.40;;
81811;SDS011;71243;51.848;5.768;2023-10-09T08:07:25;20.83;;;10.00;;
81811;SDS011;71243;51.848;5.768;2023-10-09T08:09:53;18.20;;;9.07;;
81811;SDS011;71243;51.848;5.768;2023-10-09T08:12:19;17.33;;;9.13;;
81811;SDS011;71243;51.848;5.768;2023-10-09T08:14:44;21.20;;;9.43;;
81811;SDS011;71243;51.848;5.768;2023-10-09T08:17:09;19.83;;;8.83;;
81811;SDS011;71243;51.848;5.768;2023-10-09T08:19:34;23.83;;;10.00;;
81811;SDS011;71243;51.848;5.768;2023-10-09T08:22:00;18.90;;;10.03;;
81811;SDS011;71243;51.848;5.768;2023-10-09T08:24:25;21.23;;;9.73;;
81811;SDS011;71243;51.848;5.768;2023-10-09T08:26:50;16.60;;;8.27;;
81811;SDS011;71243;51.848;5.768;2023-10-09T08:29:15;16.27;;;8.63;;
81811;SDS011;71243;51.848;5.768;2023-10-09T08:31:41;19.50;;;9.90;;
81811;SDS011;71243;51.848;5.768;2023-10-09T08:34:06;19.10;;;10.07;;
81811;SDS011;71243;51.848;5.768;2023-10-09T08:36:31;17.13;;;9.18;;
81811;SDS011;71243;51.848;5.768;2023-10-09T08:38:57;17.70;;;10.07;;
81811;SDS011;71243;51.848;5.768;2023-10-09T08:41:22;17.58;;;9.15;;
81811;SDS011;71243;51.848;5.768;2023-10-09T08:43:48;17.48;;;9.02;;
81811;SDS011;71243;51.848;5.768;2023-10-09T08:46:15;18.27;;;9.82;;
81811;SDS011;71243;51.848;5.768;2023-10-09T08:48:40;17.55;;;9.98;;
81811;SDS011;71243;51.848;5.768;2023-10-09T08:51:06;19.25;;;10.27;;
81811;SDS011;71243;51.848;5.768;2023-10-09T08:53:31;21.90;;;10.30;;
81811;SDS011;71243;51.848;5.768;2023-10-09T08:55:56;17.53;;;10.07;;
81811;SDS011;71243;51.848;5.768;2023-10-09T08:58:22;23.13;;;10.93;;
81811;SDS011;71243;51.848;5.768;2023-10-09T09:00:49;21.33;;;9.82;;
81811;SDS011;71243;51.848;5.768;2023-10-09T09:03:14;20.20;;;9.93;;
81811;SDS011;71243;51.848;5.768;2023-10-09T09:05:41;21.00;;;11.23;;
81811;SDS011;71243;51.848;5.768;2023-10-09T09:08:12;21.52;;;9.95;;
81811;SDS011;71243;51.848;5.768;2023-10-09T09:10:47;20.25;;;9.32;;
81811;SDS011;71243;51.848;5.768;2023-10-09T09:13:25;18.80;;;9.32;;
81811;SDS011;71243;51.848;5.768;2023-10-09T09:15:50;21.87;;;11.00;;
81811;SDS011;71243;51.848;5.768;2023-10-09T09:18:16;22.37;;;10.80;;
81811;SDS011;71243;51.848;5.768;2023-10-09T09:20:41;22.97;;;11.23;;
81811;SDS011;71243;51.848;5.768;2023-10-09T09:23:09;18.35;;;10.13;;
81811;SDS011;71243;51.848;5.768;2023-10-09T09:25:45;16.02;;;9.05;;
81811;SDS011;71243;51.848;5.768;2023-10-09T09:28:12;17.40;;;8.75;;
81811;SDS011;71243;51.848;5.768;2023-10-09T09:30:38;20.40;;;9.13;;
81811;SDS011;71243;51.848;5.768;2023-10-09T09:33:16;16.50;;;9.07;;
81811;SDS011;71243;51.848;5.768;2023-10-09T09:36:01;17.83;;;8.55;;
81811;SDS011;71243;51.848;5.768;2023-10-09T09:38:28;17.23;;;9.43;;
81811;SDS011;71243;51.848;5.768;2023-10-09T09:40:56;18.35;;;8.45;;
81811;SDS011;71243;51.848;5.768;2023-10-09T09:43:22;20.20;;;8.57;;
81811;SDS011;71243;51.848;5.768;2023-10-09T09:45:48;17.40;;;7.60;;
81811;SDS011;71243;51.848;5.768;2023-10-09T09:48:14;17.17;;;8.35;;
81811;SDS011;71243;51.848;5.768;2023-10-09T09:50:40;20.02;;;8.68;;
81811;SDS011;71243;51.848;5.768;2023-10-09T09:53:05;15.65;;;7.95;;
81811;SDS011;71243;51.848;5.768;2023-10-09T09:55:34;17.60;;;8.10;;
81811;SDS011;71243;51.848;5.768;2023-10-09T09:58:02;17.60;;;7.60;;
81811;SDS011;71243;51.848;5.768;2023-10-09T10:00:28;17.10;;;7.97;;
81811;SDS011;71243;51.848;5.768;2023-10-09T10:05:42;17.67;;;8.10;;
81811;SDS011;71243;51.848;5.768;2023-10-09T10:08:09;14.10;;;7.60;;
81811;SDS011;71243;51.848;5.768;2023-10-09T10:10:35;14.90;;;7.07;;
81811;SDS011;71243;51.848;5.768;2023-10-09T10:13:02;17.55;;;8.15;;
81811;SDS011;71243;51.848;5.768;2023-10-09T10:18:24;17.27;;;7.88;;
81811;SDS011;71243;51.848;5.768;2023-10-09T10:21:32;15.20;;;7.10;;
81811;SDS011;71243;51.848;5.768;2023-10-09T10:23:39;15.60;;;7.55;;
81811;SDS011;71243;51.848;5.768;2023-10-09T10:26:20;16.95;;;7.63;;
81811;SDS011;71243;51.848;5.768;2023-10-09T10:29:06;16.88;;;8.05;;
81811;SDS011;71243;51.848;5.768;2023-10-09T10:31:51;13.55;;;7.00;;
81811;SDS011;71243;51.848;5.768;2023-10-09T10:34:24;13.98;;;7.40;;
81811;SDS011;71243;51.848;5.768;2023-10-09T10:36:50;19.17;;;7.28;;
81811;SDS011;71243;51.848;5.768;2023-10-09T10:39:16;15.50;;;6.80;;
81811;SDS011;71243;51.848;5.768;2023-10-09T10:41:42;15.17;;;7.93;;
81811;SDS011;71243;51.848;5.768;2023-10-09T10:44:24;16.48;;;6.43;;
81811;SDS011;71243;51.848;5.768;2023-10-09T10:46:54;15.02;;;6.40;;
81811;SDS011;71243;51.848;5.768;2023-10-09T10:49:19;14.63;;;6.10;;
81811;SDS011;71243;51.848;5.768;2023-10-09T10:51:45;14.85;;;7.57;;
81811;SDS011;71243;51.848;5.768;2023-10-09T10:54:10;12.77;;;6.10;;
81811;SDS011;71243;51.848;5.768;2023-10-09T10:56:38;13.80;;;6.37;;
81811;SDS011;71243;51.848;5.768;2023-10-09T10:59:03;13.45;;;6.75;;
81811;SDS011;71243;51.848;5.768;2023-10-09T11:01:35;14.55;;;6.45;;
81811;SDS011;71243;51.848;5.768;2023-10-09T11:04:10;14.77;;;6.00;;
81811;SDS011;71243;51.848;5.768;2023-10-09T11:06:36;15.48;;;6.25;;
81811;SDS011;71243;51.848;5.768;2023-10-09T11:09:01;11.90;;;5.20;;
81811;SDS011;71243;51.848;5.768;2023-10-09T11:11:28;14.52;;;6.43;;
81811;SDS011;71243;51.848;5.768;2023-10-09T11:13:53;14.70;;;5.97;;
81811;SDS011;71243;51.848;5.768;2023-10-09T11:16:18;15.33;;;7.30;;
81811;SDS011;71243;51.848;5.768;2023-10-09T11:18:43;13.10;;;5.47;;
81811;SDS011;71243;51.848;5.768;2023-10-09T11:21:09;11.43;;;4.70;;
81811;SDS011;71243;51.848;5.768;2023-10-09T11:23:34;12.48;;;5.28;;
81811;SDS011;71243;51.848;5.768;2023-10-09T11:26:03;12.75;;;5.32;;
81811;SDS011;71243;51.848;5.768;2023-10-09T11:28:30;11.55;;;4.57;;
81811;SDS011;71243;51.848;5.768;2023-10-09T11:31:05;14.07;;;5.70;;
81811;SDS011;71243;51.848;5.768;2023-10-09T11:33:50;13.32;;;4.97;;
81811;SDS011;71243;51.848;5.768;2023-10-09T11:36:22;12.07;;;5.45;;
81811;SDS011;71243;51.848;5.768;2023-10-09T11:41:13;11.35;;;4.63;;
81811;SDS011;71243;51.848;5.768;2023-10-09T11:43:45;10.73;;;4.93;;
81811;SDS011;71243;51.848;5.768;2023-10-09T11:46:11;13.70;;;5.25;;
81811;SDS011;71243;51.848;5.768;2023-10-09T11:48:36;11.73;;;5.10;;
81811;SDS011;71243;51.848;5.768;2023-10-09T11:51:02;13.18;;;5.35;;
81811;SDS011;71243;51.848;5.768;2023-10-09T11:53:27;12.15;;;5.05;;
81811;SDS011;71243;51.848;5.768;2023-10-09T11:55:53;13.35;;;5.50;;
81811;SDS011;71243;51.848;5.768;2023-10-09T11:58:18;12.80;;;4.43;;
81811;SDS011;71243;51.848;5.768;2023-10-09T12:00:44;14.73;;;4.55;;
81811;SDS011;71243;51.848;5.768;2023-10-09T12:03:09;10.40;;;5.68;;
81811;SDS011;71243;51.848;5.768;2023-10-09T12:05:35;10.93;;;4.97;;
81811;SDS011;71243;51.848;5.768;2023-10-09T12:08:01;13.00;;;4.33;;
81811;SDS011;71243;51.848;5.768;2023-10-09T12:10:27;10.90;;;4.70;;
81811;SDS011;71243;51.848;5.768;2023-10-09T12:12:53;13.35;;;5.45;;
81811;SDS011;71243;51.848;5.768;2023-10-09T12:15:18;12.95;;;5.05;;
81811;SDS011;71243;51.848;5.768;2023-10-09T12:17:44;12.82;;;5.05;;
81811;SDS011;71243;51.848;5.768;2023-10-09T12:20:10;11.02;;;4.28;;
81811;SDS011;71243;51.848;5.768;2023-10-09T12:22:35;10.13;;;4.47;;
81811;SDS011;71243;51.848;5.768;2023-10-09T12:25:00;11.87;;;5.50;;
81811;SDS011;71243;51.848;5.768;2023-10-09T12:27:26;10.53;;;4.27;;
81811;SDS011;71243;51.848;5.768;2023-10-09T12:29:51;11.40;;;4.43;;
81811;SDS011;71243;51.848;5.768;2023-10-09T12:32:16;10.10;;;3.87;;
81811;SDS011;71243;51.848;5.768;2023-10-09T12:34:41;10.27;;;3.80;;
81811;SDS011;71243;51.848;5.768;2023-10-09T12:37:06;9.30;;;4.07;;
81811;SDS011;71243;51.848;5.768;2023-10-09T12:39:32;10.83;;;4.30;;
81811;SDS011;71243;51.848;5.768;2023-10-09T12:41:57;11.55;;;4.90;;
81811;SDS011;71243;51.848;5.768;2023-10-09T12:44:22;11.67;;;4.87;;
81811;SDS011;71243;51.848;5.768;2023-10-09T12:46:47;11.03;;;4.03;;
81811;SDS011;71243;51.848;5.768;2023-10-09T12:49:13;14.23;;;4.15;;
81811;SDS011;71243;51.848;5.768;2023-10-09T12:51:38;11.73;;;4.33;;
81811;SDS011;71243;51.848;5.768;2023-10-09T12:54:03;10.33;;;4.20;;
81811;SDS011;71243;51.848;5.768;2023-10-09T12:56:28;10.32;;;4.03;;
81811;SDS011;71243;51.848;5.768;2023-10-09T12:58:54;10.70;;;4.18;;
81811;SDS011;71243;51.848;5.768;2023-10-09T13:01:19;10.57;;;5.15;;
81811;SDS011;71243;51.848;5.768;2023-10-09T13:03:44;10.67;;;4.07;;
81811;SDS011;71243;51.848;5.768;2023-10-09T13:06:10;9.38;;;3.65;;
81811;SDS011;71243;51.848;5.768;2023-10-09T13:08:35;7.93;;;4.27;;
81811;SDS011;71243;51.848;5.768;2023-10-09T13:11:02;9.10;;;3.90;;
81811;SDS011;71243;51.848;5.768;2023-10-09T13:13:28;11.85;;;3.72;;
81811;SDS011;71243;51.848;5.768;2023-10-09T13:15:54;9.38;;;3.75;;
81811;SDS011;71243;51.848;5.768;2023-10-09T13:18:19;11.57;;;4.80;;
81811;SDS011;71243;51.848;5.768;2023-10-09T13:20:45;9.90;;;3.20;;
81811;SDS011;71243;51.848;5.768;2023-10-09T13:23:10;11.13;;;3.77;;
81811;SDS011;71243;51.848;5.768;2023-10-09T13:25:35;11.48;;;3.63;;
81811;SDS011;71243;51.848;5.768;2023-10-09T13:28:00;8.77;;;3.03;;
81811;SDS011;71243;51.848;5.768;2023-10-09T13:30:26;10.02;;;3.17;;
81811;SDS011;71243;51.848;5.768;2023-10-09T13:32:51;8.93;;;3.10;;
81811;SDS011;71243;51.848;5.768;2023-10-09T13:35:17;10.40;;;3.50;;
81811;SDS011;71243;51.848;5.768;2023-10-09T13:37:43;8.98;;;3.20;;
81811;SDS011;71243;51.848;5.768;2023-10-09T13:40:09;11.88;;;3.70;;
81811;SDS011;71243;51.848;5.768;2023-10-09T13:42:34;8.73;;;3.40;;
81811;SDS011;71243;51.848;5.768;2023-10-09T13:44:59;9.55;;;3.13;;
81811;SDS011;71243;51.848;5.768;2023-10-09T13:47:25;10.40;;;3.40;;
81811;SDS011;71243;51.848;5.768;2023-10-09T13:49:50;9.07;;;3.15;;
81811;SDS011;71243;51.848;5.768;2023-10-09T13:52:15;8.77;;;3.50;;
81811;SDS011;71243;51.848;5.768;2023-10-09T13:54:41;9.27;;;3.00;;
81811;SDS011;71243;51.848;5.768;2023-10-09T13:57:06;9.80;;;3.40;;
81811;SDS011;71243;51.848;5.768;2023-10-09T13:59:32;8.20;;;3.30;;
81811;SDS011;71243;51.848;5.768;2023-10-09T14:01:58;9.93;;;2.92;;
81811;SDS011;71243;51.848;5.768;2023-10-09T14:04:23;8.90;;;3.47;;
81811;SDS011;71243;51.848;5.768;2023-10-09T14:06:49;12.30;;;4.20;;
81811;SDS011;71243;51.848;5.768;2023-10-09T14:09:15;8.38;;;2.92;;
81811;SDS011;71243;51.848;5.768;2023-10-09T14:11:40;12.17;;;3.73;;
81811;SDS011;71243;51.848;5.768;2023-10-09T14:14:05;9.18;;;3.20;;
81811;SDS011;71243;51.848;5.768;2023-10-09T14:16:31;9.75;;;3.03;;
81811;SDS011;71243;51.848;5.768;2023-10-09T14:18:57;9.25;;;3.42;;
81811;SDS011;71243;51.848;5.768;2023-10-09T14:21:23;9.77;;;3.50;;
81811;SDS011;71243;51.848;5.768;2023-10-09T14:23:49;8.82;;;3.65;;
81811;SDS011;71243;51.848;5.768;2023-10-09T14:26:14;9.10;;;3.13;;
81811;SDS011;71243;51.848;5.768;2023-10-09T14:28:39;7.83;;;3.40;;
81811;SDS011;71243;51.848;5.768;2023-10-09T14:31:05;10.20;;;3.60;;
81811;SDS011;71243;51.848;5.768;2023-10-09T14:33:30;13.15;;;3.20;;